Francisco Madero, Argentina
Current Conditions -  °F | °C
As of 6:00 AM on Wednesday 22 Oct 2014 (Local Time) from SAOC Reporting Station
Clear Clear  
Wind Chill: 18°   Ceiling: Unl
Heat Index: 18°   Visibility: 6mi
Dew Point: 11°   Wind: 18mph
Humidity: 64%   Direction: 340°NNW
Pressure: 29.91"   Gusts: NA
Location:  35.86°S, 62.3°W
Report Text: SAOC 220900Z 34016KT CAVOK 18/11 Q1013
Loading
Personal Weather Stations






























Interactive Weather Map
Tropical Storm Tracking
New forecast layout! Learn more

10-Day Weather Forecast

Advertisements
Track Severe Weather on mobile